Terminal Aerodrome Forecast
Issued by NWS

Home | Current Version | Previous Version | Text Only | Print | Product List | Glossary On
Versions: 1 2 3 4 5 6 7 8 9 10 11 12
000
FTUS45 KABQ 311130
TAFLVS
TAF
KLVS 311130Z 3112/0112 VRB05KT P6SM FEW120 SCT200
     FM311900 22011G19KT P6SM SCT090 BKN200
     FM312100 26015KT P6SM VCSH SCT100 BKN140
     FM010300 21008KT P6SM SCT120 BKN200
     FM010800 02006KT P6SM BKN200=

USA.gov is the U.S. government's official web portal to all federal, state and local government web resources and services.